Portada
METAR-TAF:

METAR-TAF

Aeropuertos :

Aeropuerto de Berna

Berna, Suiza

latitud: 46-55N, longitud: 007-30E, altitud: 505 m

Observación

El informe se hizo hace 32 minutos, a las 10:20 UTC
Viento 1 kt con dirección variable
Temperatura 7°C
Humedad 61%
Presión 1024 hPa
Visibilidad 10 km o más
sin nubes por debajo de 1500 m y sin presencia de cumulonimbus.

METAR: LSZB 201020Z VRB01KT CAVOK 07/00 Q1024 NOSIG

Hora: 11:52 (10:52 UTC)

Pronóstico

El informe se hizo hace 2 horas y 27 minutos, a las 08:25 UTC
Pronóstico válido del 20 a las 09 UTC al 20 a las 18 UTC
Viento 4 kt del este
Visibilidad 10 km o más
Cielo cubierto a una altura de 11000 ft
Evolucionando progresivamente
del 20 a las 09 UTC al 20 a las 11 UTC
Visibilidad 10 km o más
sin nubes por debajo de 1500 m y sin presencia de cumulonimbus.

TAF: LSZB 200825Z 2009/2018 10004KT 9999 OVC110 BECMG 2009/2011 CAVOK

Observaciones y pronósticos meteorológicos de más de 4000 aeropuertos (mensajes METAR y TAF).

Los puntos amarillos y rojos representan las estaciones disponibles.

Ponga el ratón en el punto deseado para ver el nombre de la estación.

Haga clic para ver las observaciones y los pronósticos meteorológicos.

Para cambiar el mapa : haga clic en los botones verdes con una cruz de color negro para hacer un zoom, en el botón verde con un guión para alejar o en las flechas verdes para mapas adyacentes.


METAR-TAF: